Weather History for Chickasha, OK

Change the Weather History Date:

Saturday, March 9, 2013

  Actual Average Record
Temperature  
Mean Temperature 56 °F -  
Max Temperature 62 °F 64 °F 83 °F (1986)
Min Temperature 51 °F 39 °F 18 °F (1969)
Degree Days  
Heating Degree Days 8    
Growing Degree Days 6 (Base 50)    
Moisture  
Dew Point 55 °F    
Average Humidity 94    
Maximum Humidity 100    
Minimum Humidity 58    
Precipitation  
Precipitation 0.19 in - - ()
Sea Level Pressure  
Sea Level Pressure 29.75 in    
Wind  
Wind Speed 13 mph (SSE)    
Max Wind Speed 22 mph    
Max Gust Speed 36 mph    
Visibility 10 miles    
Events Rain    
Averages and records for this station are not official NWS values.
T = Trace of Precipitation, MM = Missing Value Source: NWS Daily Summary

Daily Weather History Graph

Daily Weather History Graph

Search for Another Location

Airport:

Trip Planner

Search our weather history database for the weather conditions in past years. The results will help you decide how hot, cold, wet, or windy it might be!

Date:

Astronomy

Mar. 09, 2013 Rise Set
Actual Time 6:50 AM CST 6:34 PM CST
Civil Twilight 6:25 AM CST 6:59 PM CST
Nautical Twilight 5:55 AM CST 7:29 PM CST
Astronomical Twilight 5:26 AM CST 7:58 PM CST
Moon 5:11 AM CST (3/9) 4:41 PM CST (3/9)
Length of Visible Light 12h 34m
Length of Day
11h 44m
Waning Crescent, 5% of the Moon is Illuminated
Mar 9
Waning Crescent
Mar 11
New
Mar 19
First Quarter
Mar 27
Full
Apr 2
Last Quarter

Hourly Weather History & Observations

Time (CST) Temp. Dew Point Humidity Pressure Visibility Wind Dir Wind Speed Gust Speed Precip Events Conditions
12:15 AM 59.0 °F 55.4 °F 88% 29.92 in 10.0 mi SSE 15.0 mph 21.9 mph N/A   Overcast
12:35 AM 59.0 °F 55.4 °F 88% 29.90 in 10.0 mi SSE 15.0 mph 21.9 mph N/A   Overcast
12:55 AM 59.0 °F 55.4 °F 88% 29.89 in 10.0 mi SSE 13.8 mph 24.2 mph N/A   Overcast
1:15 AM 59.0 °F 55.4 °F 88% 29.89 in 10.0 mi SSE 12.7 mph - N/A   Overcast
1:35 AM 59.0 °F 55.4 °F 88% 29.89 in 10.0 mi SSE 13.8 mph 20.7 mph N/A   Overcast
1:55 AM 59.0 °F 55.4 °F 88% 29.88 in 10.0 mi SSE 12.7 mph 21.9 mph N/A   Overcast
2:15 AM 59.0 °F 55.4 °F 88% 29.88 in 10.0 mi SSE 13.8 mph - N/A   Overcast
2:35 AM 59.0 °F 55.4 °F 88% 29.87 in 10.0 mi SSE 12.7 mph - N/A   Overcast
2:55 AM 59.0 °F 55.4 °F 88% 29.87 in 10.0 mi SSE 12.7 mph 18.4 mph N/A   Overcast
3:15 AM 59.0 °F 57.2 °F 94% 29.86 in 10.0 mi SSE 13.8 mph - N/A   Overcast
3:35 AM 59.0 °F 57.2 °F 94% 29.84 in 10.0 mi SSE 16.1 mph 19.6 mph N/A   Overcast
3:55 AM 57.2 °F 55.4 °F 94% 29.84 in 10.0 mi SSE 13.8 mph - N/A   Overcast
4:15 AM 55.4 °F 55.4 °F 100% 29.84 in 10.0 mi SSE 13.8 mph 18.4 mph N/A   Overcast
4:35 AM 55.4 °F 55.4 °F 100% 29.85 in 10.0 mi SSE 13.8 mph 18.4 mph N/A   Overcast
4:55 AM 55.4 °F 55.4 °F 100% 29.84 in 7.0 mi SSE 15.0 mph 18.4 mph N/A   Overcast
5:15 AM 55.4 °F 55.4 °F 100% 29.83 in 10.0 mi SSE 13.8 mph - N/A   Overcast
5:35 AM 55.4 °F 55.4 °F 100% 29.82 in 10.0 mi SSE 16.1 mph 19.6 mph N/A   Overcast
5:55 AM 55.4 °F 55.4 °F 100% 29.82 in 10.0 mi SSE 17.3 mph - N/A   Overcast
6:15 AM 55.4 °F 55.4 °F 100% 29.81 in 10.0 mi SSE 16.1 mph - N/A   Overcast
6:35 AM 55.4 °F 55.4 °F 100% 29.81 in 10.0 mi SSE 17.3 mph 24.2 mph N/A   Overcast
6:55 AM 55.4 °F 55.4 °F 100% 29.81 in 10.0 mi SSE 17.3 mph 24.2 mph N/A   Overcast
7:15 AM 55.4 °F 55.4 °F 100% 29.80 in 10.0 mi SSE 17.3 mph 26.5 mph N/A   Overcast
7:35 AM 55.4 °F 55.4 °F 100% 29.80 in 10.0 mi SSE 16.1 mph - N/A   Overcast
7:55 AM 55.4 °F 55.4 °F 100% 29.80 in 7.0 mi SSE 13.8 mph - N/A   Overcast
8:15 AM 55.4 °F 55.4 °F 100% 29.79 in 10.0 mi SSE 15.0 mph 20.7 mph N/A   Overcast
8:35 AM 55.4 °F 55.4 °F 100% 29.78 in 10.0 mi SSE 16.1 mph 25.3 mph N/A   Overcast
8:55 AM 59.0 °F 59.0 °F 100% 29.77 in 10.0 mi SSE 19.6 mph 24.2 mph N/A   Overcast
9:15 AM 59.0 °F 59.0 °F 100% 29.77 in 10.0 mi SSE 20.7 mph - N/A   Overcast
9:35 AM 59.0 °F 59.0 °F 100% 29.77 in 10.0 mi SSE 20.7 mph 26.5 mph N/A   Overcast
9:55 AM 59.0 °F 59.0 °F 100% 29.76 in 10.0 mi South 16.1 mph 24.2 mph N/A   Overcast
10:15 AM 59.0 °F 57.2 °F 94% 29.75 in 10.0 mi South 18.4 mph - N/A   Overcast
10:35 AM 59.0 °F 57.2 °F 94% 29.74 in 10.0 mi SSE 21.9 mph 28.8 mph N/A   Overcast
10:55 AM 59.0 °F 57.2 °F 94% 29.74 in 10.0 mi South 16.1 mph 20.7 mph N/A   Overcast
11:15 AM 59.0 °F 59.0 °F 100% 29.74 in 10.0 mi South 15.0 mph 23.0 mph N/A   Overcast
11:35 AM 60.8 °F 59.0 °F 94% 29.74 in 10.0 mi South 11.5 mph 18.4 mph N/A   Overcast
11:55 AM 60.8 °F 59.0 °F 94% 29.73 in 10.0 mi South 13.8 mph - N/A   Overcast
12:15 PM 60.8 °F 59.0 °F 94% 29.72 in 10.0 mi South 13.8 mph 20.7 mph N/A   Overcast
12:35 PM 62.6 °F 59.0 °F 88% 29.69 in 10.0 mi South 13.8 mph 23.0 mph N/A   Overcast
12:55 PM 62.6 °F 59.0 °F 88% 29.68 in 10.0 mi South 18.4 mph 24.2 mph N/A   Overcast
1:15 PM 62.6 °F 59.0 °F 88% 29.69 in 10.0 mi South 8.1 mph 19.6 mph N/A   Overcast
1:35 PM 62.6 °F 59.0 °F 88% 29.67 in 10.0 mi South 16.1 mph 23.0 mph N/A Rain Light Rain
1:55 PM 55.4 °F 51.8 °F 88% 29.68 in 5.0 mi West 10.4 mph 35.7 mph 0.18 in Rain Light Rain
2:15 PM 55.4 °F 53.6 °F 94% 29.66 in 10.0 mi SE 4.6 mph - 0.01 in   Overcast
2:35 PM 59.0 °F 55.4 °F 88% 29.66 in 10.0 mi SE 5.8 mph - 0.01 in   Overcast
2:55 PM 59.0 °F 55.4 °F 88% 29.66 in 10.0 mi SE 10.4 mph - 0.01 in   Overcast
3:15 PM 59.0 °F 53.6 °F 82% 29.66 in 10.0 mi SSE 9.2 mph - N/A   Mostly Cloudy
3:35 PM 59.0 °F 53.6 °F 82% 29.66 in 10.0 mi SE 8.1 mph - N/A   Overcast
3:55 PM 59.0 °F 55.4 °F 88% 29.64 in 10.0 mi SE 4.6 mph - N/A   Overcast
4:15 PM 59.0 °F 55.4 °F 88% 29.65 in 10.0 mi SSE 6.9 mph - N/A   Overcast
4:35 PM 59.0 °F 55.4 °F 88% 29.65 in 10.0 mi SE 6.9 mph - N/A   Overcast
4:55 PM 57.2 °F 53.6 °F 88% 29.63 in 10.0 mi SE 5.8 mph - N/A   Overcast
5:15 PM 57.2 °F 53.6 °F 88% 29.63 in 10.0 mi SE 8.1 mph - N/A   Overcast
5:35 PM 57.2 °F 53.6 °F 88% 29.65 in 10.0 mi SE 10.4 mph - N/A   Overcast
5:55 PM 55.4 °F 53.6 °F 94% 29.65 in 10.0 mi SE 10.4 mph - N/A   Overcast
6:15 PM 55.4 °F 53.6 °F 94% 29.65 in 10.0 mi SE 9.2 mph - N/A   Overcast
6:35 PM 55.4 °F 53.6 °F 94% 29.67 in 10.0 mi SSE 9.2 mph - N/A   Overcast
6:55 PM 55.4 °F 53.6 °F 94% 29.67 in 10.0 mi SE 10.4 mph - N/A   Overcast
7:15 PM 55.4 °F 55.4 °F 100% 29.68 in 10.0 mi SSE 5.8 mph - N/A   Overcast
7:35 PM 55.4 °F 53.6 °F 94% 29.69 in 10.0 mi SE 6.9 mph - N/A   Overcast
7:55 PM 53.6 °F 53.6 °F 100% 29.69 in 10.0 mi SSE 4.6 mph - N/A   Overcast
8:15 PM 53.6 °F 53.6 °F 100% 29.67 in 10.0 mi SE 4.6 mph - N/A   Mostly Cloudy
8:35 PM 53.6 °F 53.6 °F 100% 29.67 in 4.0 mi SE 3.5 mph - N/A   Scattered Clouds
8:55 PM 53.6 °F 53.6 °F 100% 29.67 in 0.8 mi SE 5.8 mph - N/A   Overcast
9:15 PM 53.6 °F 53.6 °F 100% 29.69 in 4.0 mi SSE 5.8 mph - N/A   Overcast
9:35 PM 53.6 °F 53.6 °F 100% 29.68 in 10.0 mi ESE 5.8 mph - N/A   Mostly Cloudy
9:55 PM 51.8 °F 51.8 °F 100% 29.71 in 10.0 mi SSW 4.6 mph - N/A   Mostly Cloudy
10:15 PM 51.8 °F 51.8 °F 100% 29.72 in 10.0 mi Calm Calm - N/A   Mostly Cloudy
10:35 PM 53.6 °F 53.6 °F 100% 29.69 in 10.0 mi SSE 4.6 mph - N/A   Mostly Cloudy
10:55 PM 53.6 °F 53.6 °F 100% 29.73 in 10.0 mi SW 6.9 mph - N/A   Mostly Cloudy
11:15 PM 53.6 °F 51.8 °F 94% 29.71 in 10.0 mi West 3.5 mph - N/A   Overcast
11:35 PM 55.4 °F 46.4 °F 72% 29.76 in 10.0 mi SW 10.4 mph - N/A   Overcast
11:55 PM 55.4 °F 41.0 °F 58% 29.72 in 10.0 mi SW 6.9 mph - N/A   Overcast